This is the latest recevied weather packets stored in our database for station/object AE2A-13. If no packets are shown the sender has not sent any weather packets the latest 10 day(s).
| Time | Temp. | Humidity | Pressure | Rain* | Wind** | Luminosity | Snow |
|---|---|---|---|---|---|---|---|
| 1777384504 | 25° C | 85% | 1020.6 hPa | 0 mm | - | - | - |
| 1777383603 | 24.44° C | 88% | 1020.7 hPa | 0 mm | - | - | - |
| 1777383303 | 24.44° C | 88% | 1020.7 hPa | 0 mm | - | - | - |
| 1777380303 | 22.22° C | 97% | 1020.2 hPa | 0 mm | - | - | - |
| 1777379704 | 21.67° C | 100% | 1020.1 hPa | 0 mm | - | - | - |
| 1777379404 | 21.67° C | 100% | 1020.1 hPa | 0 mm | - | - | - |
| 1777377304 | 20.56° C | 99% | 1019.9 hPa | 0 mm | - | - | - |
| 1777376704 | 20° C | 99% | 1019.8 hPa | 0 mm | - | - | - |
| 1777376104 | 20° C | 99% | 1019.8 hPa | 0 mm | - | - | - |
| 1777375503 | 20° C | 99% | 1019.7 hPa | 0 mm | - | - | - |
| 1777373404 | 19.44° C | 100% | 1019.5 hPa | 0 mm | - | - | - |
| 1777372804 | 19.44° C | 100% | 1019.3 hPa | 0 mm | - | - | - |
| 1777372504 | 19.44° C | 99% | 1019.3 hPa | 0 mm | - | - | - |
| 1777371903 | 19.44° C | 99% | 1019.1 hPa | 0 mm | - | - | - |
| 1777365603 | 18.33° C | 100% | 1018.5 hPa | 0 mm | - | - | - |
| 1777360504 | 18.89° C | 97% | 1018.9 hPa | 0 mm | - | - | - |
| 1777356904 | 19.44° C | 97% | 1019.4 hPa | 0 mm | - | - | - |
| 1777350604 | 20° C | 95% | 1020 hPa | 0 mm | - | - | - |
| 1777347303 | 20.56° C | 95% | 1020 hPa | 0 mm | - | - | - |
| 1777344604 | 20.56° C | 94% | 1020.1 hPa | 0 mm | - | - | - |
| 1777338004 | 22.22° C | 87% | 1019.2 hPa | 0 mm | - | - | - |
* Rain latest hour (hover to see other rain measurements)
** Current wind speed in m/s (hover to see current wind gust speed)